createdAt,value
2022-10-18T00:01:07.673Z,17.23
2022-10-18T00:03:35.115Z,18.92
2022-10-18T00:06:03.245Z,19.10
2022-10-18T00:08:30.191Z,18.73
2022-10-18T00:10:57.341Z,17.58
2022-10-18T00:13:24.703Z,24.23
2022-10-18T00:15:59.142Z,23.65
2022-10-18T00:18:27.573Z,25.98
2022-10-18T00:21:13.312Z,25.92
2022-10-18T00:23:40.456Z,23.27
2022-10-18T00:26:17.318Z,24.52
2022-10-18T00:28:45.675Z,25.05
2022-10-18T00:31:19.664Z,24.80
2022-10-18T00:33:50.599Z,24.13
2022-10-18T00:36:18.121Z,22.88
2022-10-18T00:38:46.250Z,21.15
2022-10-18T00:41:22.225Z,22.42
2022-10-18T00:44:00.510Z,24.60
2022-10-18T00:46:34.621Z,27.15
2022-10-18T00:49:23.493Z,26.05
2022-10-18T00:51:59.633Z,26.80
2022-10-18T00:54:30.146Z,24.50
2022-10-18T00:56:57.432Z,24.30
2022-10-18T00:59:25.601Z,27.35
2022-10-18T01:01:52.541Z,33.38
2022-10-18T01:04:21.661Z,23.58
2022-10-18T01:07:14.518Z,22.27
2022-10-18T01:10:04.634Z,20.20
2022-10-18T01:13:02.048Z,22.67
2022-10-18T01:15:48.772Z,19.95
2022-10-18T01:18:28.503Z,24.40
2022-10-18T01:21:08.928Z,20.33
2022-10-18T01:24:14.255Z,27.88
2022-10-18T01:27:11.699Z,24.05
2022-10-18T01:30:29.154Z,22.35
2022-10-18T01:33:13.595Z,18.00
2022-10-18T01:35:48.880Z,22.15
2022-10-18T01:38:19.529Z,20.35
2022-10-18T01:40:49.819Z,16.88
2022-10-18T01:43:18.751Z,18.35
2022-10-18T01:45:47.041Z,32.00
2022-10-18T01:48:14.736Z,21.27
2022-10-18T01:50:42.109Z,20.45
2022-10-18T01:53:39.969Z,26.25
2022-10-18T01:56:40.723Z,29.58
2022-10-18T01:59:33.216Z,19.13
2022-10-18T02:02:08.497Z,24.35
2022-10-18T02:04:46.107Z,20.17
2022-10-18T02:08:05.883Z,19.55
2022-10-18T02:10:50.686Z,23.42
2022-10-18T02:13:21.398Z,32.88
2022-10-18T02:15:55.312Z,20.63
2022-10-18T02:18:29.314Z,22.05
2022-10-18T02:20:58.145Z,26.10
2022-10-18T02:23:26.890Z,33.70
2022-10-18T02:25:54.595Z,28.73
2022-10-18T02:28:22.360Z,17.92
2022-10-18T02:31:07.056Z,15.82
2022-10-18T02:33:52.776Z,24.23
2022-10-18T02:37:03.901Z,19.73
2022-10-18T02:39:40.721Z,18.38
2022-10-18T02:42:11.007Z,16.63
2022-10-18T02:44:39.063Z,25.63
2022-10-18T02:47:09.482Z,16.77
2022-10-18T02:49:36.476Z,21.05
2022-10-18T02:52:03.712Z,14.27
2022-10-18T02:54:30.618Z,21.42
2022-10-18T02:56:57.718Z,25.65
2022-10-18T02:59:24.682Z,19.25
2022-10-18T03:01:51.621Z,17.67
2022-10-18T03:04:18.683Z,22.08
2022-10-18T03:06:45.620Z,18.25
2022-10-18T03:09:12.471Z,13.80
2022-10-18T03:11:39.406Z,12.57
2022-10-18T03:14:06.463Z,11.23
2022-10-18T03:16:34.214Z,10.05
2022-10-18T03:19:01.182Z,16.50
2022-10-18T03:21:28.203Z,18.45
2022-10-18T03:23:56.160Z,16.58
2022-10-18T03:26:23.114Z,15.82
2022-10-18T03:28:50.159Z,13.30
2022-10-18T03:31:17.205Z,20.48
2022-10-18T03:33:44.179Z,20.17
2022-10-18T03:36:12.131Z,29.33
2022-10-18T03:38:39.145Z,31.13
2022-10-18T03:41:06.481Z,20.83
2022-10-18T03:43:33.427Z,25.35
2022-10-18T03:46:01.075Z,30.52
2022-10-18T03:48:28.152Z,17.25
2022-10-18T03:50:55.102Z,34.85
2022-10-18T03:53:21.995Z,16.38
2022-10-18T03:55:53.706Z,17.77
2022-10-18T03:58:21.332Z,16.52
2022-10-18T04:00:55.480Z,19.50
2022-10-18T04:03:23.816Z,28.15
2022-10-18T04:05:51.332Z,20.92
2022-10-18T04:08:18.926Z,31.48
2022-10-18T04:10:47.971Z,15.65
2022-10-18T04:13:14.916Z,17.10
2022-10-18T04:15:42.017Z,17.25
2022-10-18T04:18:09.106Z,14.90
2022-10-18T04:20:36.048Z,18.10
2022-10-18T04:23:02.942Z,17.77
2022-10-18T04:25:29.980Z,22.17
2022-10-18T04:27:57.098Z,23.80
2022-10-18T04:30:24.025Z,21.15
2022-10-18T04:32:51.309Z,18.52
2022-10-18T04:35:19.739Z,19.90
2022-10-18T04:37:46.607Z,18.10
2022-10-18T04:40:13.579Z,17.98
2022-10-18T04:42:40.513Z,12.90
2022-10-18T04:45:08.172Z,18.00
2022-10-18T04:47:35.234Z,14.82
2022-10-18T04:50:02.264Z,16.33
2022-10-18T04:52:29.281Z,14.57
2022-10-18T04:54:56.330Z,11.40
2022-10-18T04:57:23.336Z,13.93
2022-10-18T04:59:50.217Z,11.27
2022-10-18T05:02:17.254Z,9.93
2022-10-18T05:04:44.480Z,12.52
2022-10-18T05:07:11.455Z,13.80
2022-10-18T05:09:38.456Z,10.13
2022-10-18T05:12:05.479Z,8.73
2022-10-18T05:14:32.380Z,9.27
2022-10-18T05:16:59.354Z,9.30
2022-10-18T05:19:26.287Z,8.75
2022-10-18T05:21:53.280Z,10.00
2022-10-18T05:24:21.962Z,14.60
2022-10-18T05:26:51.310Z,13.77
2022-10-18T05:29:18.437Z,13.88
2022-10-18T05:31:45.578Z,9.85
2022-10-18T05:34:12.441Z,11.40
2022-10-18T05:36:39.393Z,11.27
2022-10-18T05:39:06.673Z,9.23
2022-10-18T05:41:33.937Z,10.18
2022-10-18T05:44:05.441Z,10.15
2022-10-18T05:46:33.019Z,12.13
2022-10-18T05:48:59.980Z,9.35
2022-10-18T05:51:26.870Z,12.57
2022-10-18T05:53:54.739Z,8.18
2022-10-18T05:56:21.930Z,10.98
2022-10-18T05:58:52.751Z,8.98
2022-10-18T06:01:20.219Z,19.70
2022-10-18T06:03:47.774Z,10.35
2022-10-18T06:06:15.371Z,14.75
2022-10-18T06:08:43.997Z,6.03
2022-10-18T06:11:14.497Z,7.18
2022-10-18T06:13:44.106Z,18.35
2022-10-18T06:16:12.614Z,11.93
2022-10-18T06:18:39.939Z,14.43
2022-10-18T06:21:07.471Z,11.07
2022-10-18T06:23:34.926Z,14.63
2022-10-18T06:26:07.606Z,9.00
2022-10-18T06:28:36.226Z,7.20
2022-10-18T06:31:05.468Z,9.23
2022-10-18T06:33:33.793Z,10.52
2022-10-18T06:36:13.467Z,8.70
2022-10-18T06:38:40.347Z,10.52
2022-10-18T06:41:08.743Z,7.72
2022-10-18T06:43:36.087Z,8.60
2022-10-18T06:46:07.592Z,13.98
2022-10-18T06:48:36.536Z,10.13
2022-10-18T06:51:06.507Z,11.45
2022-10-18T06:53:44.121Z,8.52
2022-10-18T06:56:20.478Z,10.00
2022-10-18T06:58:47.572Z,7.75
2022-10-18T07:01:17.379Z,15.27
2022-10-18T07:03:46.042Z,10.73
2022-10-18T07:06:15.982Z,9.35
2022-10-18T07:08:43.872Z,8.18
2022-10-18T07:11:20.314Z,11.30
2022-10-18T07:13:47.481Z,9.27
2022-10-18T07:16:18.496Z,8.95
2022-10-18T07:18:50.974Z,8.90
2022-10-18T07:21:22.114Z,9.48
2022-10-18T07:23:50.163Z,9.88
2022-10-18T07:26:27.420Z,9.70
2022-10-18T07:28:58.139Z,10.18
2022-10-18T07:31:25.875Z,12.23
2022-10-18T07:33:53.231Z,10.65
2022-10-18T07:36:22.086Z,8.63
2022-10-18T07:38:49.713Z,8.88
2022-10-18T07:41:16.635Z,32.55
2022-10-18T07:43:47.711Z,9.02
2022-10-18T07:46:15.756Z,8.75
2022-10-18T07:48:42.866Z,8.02
2022-10-18T07:51:10.349Z,7.07
2022-10-18T07:53:37.946Z,6.05
2022-10-18T07:56:16.472Z,4.40
2022-10-18T07:58:45.336Z,4.97
2022-10-18T08:01:14.212Z,4.47
2022-10-18T08:03:42.367Z,4.10
2022-10-18T08:06:12.204Z,4.30
2022-10-18T08:08:40.710Z,4.30
2022-10-18T08:11:15.290Z,3.30
2022-10-18T08:13:43.459Z,3.53
2022-10-18T08:16:14.246Z,3.45
2022-10-18T08:18:41.374Z,2.65
2022-10-18T08:21:11.359Z,3.28
2022-10-18T08:23:39.080Z,3.80
2022-10-18T08:26:12.675Z,2.72
2022-10-18T08:28:40.459Z,2.58
2022-10-18T08:31:17.518Z,1.38
2022-10-18T08:33:45.661Z,1.65
2022-10-18T08:36:15.998Z,1.80
2022-10-18T08:38:43.862Z,1.35
2022-10-18T08:41:34.970Z,1.98
2022-10-18T08:44:07.771Z,3.60
2022-10-18T08:46:37.487Z,1.48
2022-10-18T08:49:05.975Z,1.17
2022-10-18T08:51:42.799Z,1.52
2022-10-18T08:54:37.764Z,1.55
2022-10-18T08:57:13.710Z,1.52
2022-10-18T08:59:41.679Z,1.52
2022-10-18T09:02:39.217Z,1.75
2022-10-18T09:06:03.715Z,1.10
2022-10-18T09:09:00.765Z,1.30
2022-10-18T09:11:52.143Z,0.80
2022-10-18T09:14:50.988Z,1.13
2022-10-18T09:17:28.354Z,1.13
2022-10-18T09:20:04.172Z,1.00
2022-10-18T09:23:03.638Z,0.68
2022-10-18T09:25:41.403Z,0.63
2022-10-18T09:28:19.991Z,1.00
2022-10-18T09:31:16.862Z,2.30
2022-10-18T09:33:57.010Z,1.98
2022-10-18T09:36:35.497Z,1.00
2022-10-18T09:39:11.670Z,1.08
2022-10-18T09:41:47.142Z,0.70
2022-10-18T09:44:34.531Z,0.95
2022-10-18T09:47:14.551Z,0.98
2022-10-18T09:49:49.284Z,1.23
2022-10-18T09:52:24.424Z,0.60
2022-10-18T09:55:00.601Z,1.33
2022-10-18T09:57:41.597Z,0.98
2022-10-18T10:00:39.629Z,1.13
2022-10-18T10:03:14.884Z,0.90
2022-10-18T10:05:43.272Z,0.90
2022-10-18T10:08:10.702Z,1.20
2022-10-18T10:10:41.495Z,0.80
2022-10-18T10:13:24.305Z,0.82
2022-10-18T10:16:01.271Z,0.70
2022-10-18T10:18:33.601Z,0.90
2022-10-18T10:21:05.878Z,0.73
2022-10-18T10:23:38.297Z,1.00
2022-10-18T10:26:34.228Z,0.70
2022-10-18T10:29:01.618Z,1.05
2022-10-18T10:31:34.453Z,0.75
2022-10-18T10:34:14.698Z,0.80
2022-10-18T10:36:51.234Z,0.80
2022-10-18T10:39:20.654Z,0.90
2022-10-18T10:41:49.747Z,1.48
2022-10-18T10:44:20.181Z,2.05
2022-10-18T10:46:50.129Z,0.85
2022-10-18T10:49:40.689Z,1.08
2022-10-18T10:52:27.708Z,0.65
2022-10-18T10:57:47.991Z,0.80
2022-10-18T11:00:44.274Z,0.68
2022-10-18T11:05:57.700Z,0.70
2022-10-18T11:08:29.385Z,0.80
2022-10-18T11:11:18.048Z,0.80
2022-10-18T11:14:07.287Z,0.52
2022-10-18T11:16:49.637Z,1.83
2022-10-18T11:20:01.044Z,0.50
2022-10-18T11:22:35.255Z,0.63
2022-10-18T11:25:05.034Z,1.17
2022-10-18T11:28:09.515Z,0.60
2022-10-18T11:31:04.502Z,0.77
2022-10-18T11:34:15.341Z,0.52
2022-10-18T11:37:42.821Z,1.17
2022-10-18T11:43:17.351Z,0.52
2022-10-18T11:45:57.748Z,0.88
2022-10-18T11:48:42.554Z,0.68
2022-10-18T11:52:06.678Z,1.20
2022-10-18T11:55:03.306Z,1.05
2022-10-18T11:57:55.510Z,0.45
2022-10-18T12:00:39.582Z,0.57
2022-10-18T12:03:21.293Z,0.70
2022-10-18T12:05:51.718Z,0.65
2022-10-18T12:08:56.790Z,0.68
2022-10-18T12:11:36.799Z,1.00
2022-10-18T12:14:26.230Z,0.85
2022-10-18T12:17:28.057Z,0.90
2022-10-18T12:19:48.050Z,1.10
2022-10-18T12:22:26.133Z,1.00
2022-10-18T12:24:53.136Z,0.73
2022-10-18T12:27:40.356Z,0.95
2022-10-18T12:30:19.932Z,0.50
2022-10-18T12:33:03.548Z,0.98
2022-10-18T12:36:00.932Z,0.85
2022-10-18T12:38:35.716Z,0.98
2022-10-18T12:41:04.652Z,1.08
2022-10-18T12:43:36.902Z,0.82
2022-10-18T12:46:12.996Z,0.80
2022-10-18T12:48:45.676Z,0.80
2022-10-18T12:51:22.820Z,1.00
2022-10-18T12:54:10.679Z,1.33
2022-10-18T12:56:42.147Z,1.00
2022-10-18T12:59:15.038Z,0.93
2022-10-18T13:01:51.222Z,1.38
2022-10-18T13:04:32.748Z,0.60
2022-10-18T13:07:05.529Z,1.05
2022-10-18T13:09:37.532Z,0.98
2022-10-18T13:12:10.176Z,0.50
2022-10-18T13:14:53.608Z,0.60
2022-10-18T13:17:46.967Z,0.50
2022-10-18T13:21:07.097Z,1.05
2022-10-18T13:23:57.311Z,1.80
2022-10-18T13:26:37.919Z,0.68
2022-10-18T13:29:13.745Z,0.65
2022-10-18T13:32:14.257Z,0.30
2022-10-18T13:34:41.467Z,1.02
2022-10-18T13:37:11.163Z,0.45
2022-10-18T13:39:40.121Z,0.43
2022-10-18T13:42:30.600Z,0.40
2022-10-18T13:45:32.606Z,0.30
2022-10-18T13:48:29.908Z,0.25
2022-10-18T13:51:38.016Z,0.50
2022-10-18T13:54:35.311Z,0.30
2022-10-18T13:57:30.117Z,0.98
2022-10-18T14:00:37.532Z,0.40
2022-10-18T14:03:55.153Z,0.22
2022-10-18T14:06:26.644Z,0.60
2022-10-18T14:09:14.288Z,0.30
2022-10-18T14:12:02.687Z,0.52
2022-10-18T14:15:09.902Z,0.50
2022-10-18T14:17:46.477Z,1.92
2022-10-18T14:21:12.217Z,0.50
2022-10-18T14:23:44.778Z,1.02
2022-10-18T14:26:18.438Z,0.60
2022-10-18T14:28:59.679Z,0.50
2022-10-18T14:31:28.219Z,0.45
2022-10-18T14:33:58.643Z,1.00
2022-10-18T14:36:30.514Z,0.60
2022-10-18T14:39:03.586Z,1.65
2022-10-18T14:41:34.002Z,1.25
2022-10-18T14:44:16.308Z,1.13
2022-10-18T14:46:46.506Z,0.75
2022-10-18T14:49:14.831Z,0.60
2022-10-18T14:51:44.468Z,0.98
2022-10-18T14:54:20.974Z,1.17
2022-10-18T14:56:48.846Z,0.80
2022-10-18T14:59:21.373Z,1.20
2022-10-18T15:02:01.907Z,0.98
2022-10-18T15:04:33.220Z,1.45
2022-10-18T15:07:04.647Z,0.85
2022-10-18T15:09:35.329Z,0.93
2022-10-18T15:12:05.749Z,1.00
2022-10-18T15:14:34.400Z,1.45
2022-10-18T15:17:21.811Z,1.00
2022-10-18T15:20:05.918Z,1.05
2022-10-18T15:22:34.217Z,1.27
2022-10-18T15:25:31.792Z,0.68
2022-10-18T15:28:00.650Z,1.10
2022-10-18T15:30:38.123Z,1.05
2022-10-18T15:33:10.407Z,0.63
2022-10-18T15:35:39.514Z,2.33
2022-10-18T15:38:21.397Z,1.35
2022-10-18T15:40:48.513Z,2.28
2022-10-18T15:43:24.419Z,1.17
2022-10-18T15:46:03.483Z,1.42
2022-10-18T15:48:40.344Z,0.80
2022-10-18T15:51:20.374Z,0.90
2022-10-18T15:53:56.279Z,0.80
2022-10-18T15:56:37.499Z,0.73
2022-10-18T15:59:20.686Z,2.67
2022-10-18T16:01:47.870Z,1.05
2022-10-18T16:04:26.251Z,0.95
2022-10-18T16:06:54.395Z,1.50
2022-10-18T16:09:24.210Z,1.45
2022-10-18T16:11:56.405Z,1.23
2022-10-18T16:14:25.455Z,1.30
2022-10-18T16:16:57.029Z,1.67
2022-10-18T16:19:24.125Z,0.95
2022-10-18T16:21:53.675Z,1.20
2022-10-18T16:24:21.789Z,1.08
2022-10-18T16:26:49.838Z,1.05
2022-10-18T16:29:25.823Z,1.38
2022-10-18T16:31:55.345Z,1.98
2022-10-18T16:34:22.225Z,0.90
2022-10-18T16:36:49.100Z,0.98
2022-10-18T16:39:19.618Z,1.00
2022-10-18T16:41:47.696Z,2.00
2022-10-18T16:44:15.838Z,0.82
2022-10-18T16:46:43.796Z,0.95
2022-10-18T16:49:25.636Z,0.88
2022-10-18T16:51:55.785Z,1.00
2022-10-18T16:54:23.711Z,1.20
2022-10-18T16:56:51.151Z,1.55
2022-10-18T16:59:29.106Z,1.35
2022-10-18T17:01:56.166Z,0.93
2022-10-18T17:04:23.103Z,0.90
2022-10-18T17:06:50.547Z,0.68
2022-10-18T17:09:17.479Z,0.80
2022-10-18T17:11:44.315Z,1.13
2022-10-18T17:14:11.236Z,3.53
2022-10-18T17:16:39.057Z,1.55
2022-10-18T17:19:10.526Z,0.60
2022-10-18T17:21:37.724Z,1.48
2022-10-18T17:24:06.189Z,0.70
2022-10-18T17:26:34.358Z,1.30
2022-10-18T17:29:05.760Z,1.17
2022-10-18T17:31:33.295Z,1.40
2022-10-18T17:34:01.937Z,2.08
2022-10-18T17:36:31.095Z,1.38
2022-10-18T17:38:58.797Z,0.88
2022-10-18T17:41:26.453Z,0.85
2022-10-18T17:43:53.395Z,1.38
2022-10-18T17:46:20.366Z,0.95
2022-10-18T17:48:47.448Z,0.80
2022-10-18T17:51:17.225Z,1.35
2022-10-18T17:53:44.576Z,1.17
2022-10-18T17:56:12.836Z,0.88
2022-10-18T17:58:39.986Z,0.90
2022-10-18T18:01:22.092Z,1.40
2022-10-18T18:03:50.041Z,1.73
2022-10-18T18:06:34.050Z,1.00
2022-10-18T18:09:08.091Z,1.60
2022-10-18T18:11:38.041Z,1.73
2022-10-18T18:14:10.161Z,2.45
2022-10-18T18:16:40.180Z,1.05
2022-10-18T18:19:09.950Z,1.17
2022-10-18T18:21:38.196Z,1.58
2022-10-18T18:24:05.286Z,1.10
2022-10-18T18:26:34.769Z,1.80
2022-10-18T18:31:37.701Z,1.10
2022-10-18T18:34:07.152Z,1.10
2022-10-18T18:36:34.105Z,1.02
2022-10-18T18:39:01.252Z,1.25
2022-10-18T18:41:29.095Z,1.17
2022-10-18T18:44:02.487Z,0.70
2022-10-18T18:46:34.183Z,0.90
2022-10-18T18:49:01.131Z,2.15
2022-10-18T18:51:28.603Z,2.28
2022-10-18T18:53:55.477Z,1.02
2022-10-18T18:56:25.932Z,1.05
2022-10-18T18:58:53.874Z,2.75
2022-10-18T19:01:23.403Z,0.65
2022-10-18T19:03:52.989Z,1.38
2022-10-18T19:06:29.742Z,0.68
2022-10-18T19:09:02.985Z,1.20
2022-10-18T19:11:34.218Z,1.92
2022-10-18T19:14:02.718Z,1.10
2022-10-18T19:16:35.078Z,1.85
2022-10-18T19:19:10.630Z,1.08
2022-10-18T19:21:52.984Z,1.10
2022-10-18T19:24:21.460Z,1.90
2022-10-18T19:26:52.321Z,0.88
2022-10-18T19:29:29.171Z,1.23
2022-10-18T19:31:59.811Z,1.88
2022-10-18T19:34:29.042Z,0.70
2022-10-18T19:36:56.423Z,0.70
2022-10-18T19:39:32.573Z,2.38
2022-10-18T19:42:03.703Z,1.70
2022-10-18T19:44:33.710Z,1.40
2022-10-18T19:47:00.986Z,0.98
2022-10-18T19:49:29.119Z,1.00
2022-10-18T19:51:57.311Z,1.30
2022-10-18T19:54:25.415Z,1.05
2022-10-18T19:56:52.617Z,0.40
2022-10-18T19:59:20.057Z,0.70
2022-10-18T20:01:47.234Z,3.60
2022-10-18T20:04:14.969Z,0.80
2022-10-18T20:06:42.162Z,0.77
2022-10-18T20:09:13.482Z,0.55
2022-10-18T20:11:43.120Z,1.45
2022-10-18T20:14:10.818Z,1.15
2022-10-18T20:16:37.795Z,1.25
2022-10-18T20:19:07.356Z,0.93
2022-10-18T20:21:35.732Z,0.47
2022-10-18T20:24:05.494Z,0.70
2022-10-18T20:26:32.995Z,0.70
2022-10-18T20:29:00.179Z,1.05
2022-10-18T20:31:38.402Z,0.88
2022-10-18T20:34:10.005Z,1.52
2022-10-18T20:36:37.533Z,0.82
2022-10-18T20:39:05.841Z,2.22
2022-10-18T20:41:41.232Z,1.17
2022-10-18T20:44:13.916Z,0.75
2022-10-18T20:46:41.230Z,0.63
2022-10-18T20:49:11.301Z,0.50
2022-10-18T20:51:38.208Z,0.50
2022-10-18T20:54:06.914Z,0.95
2022-10-18T20:56:36.483Z,0.60
2022-10-18T20:59:06.112Z,0.70
2022-10-18T21:01:34.791Z,0.60
2022-10-18T21:04:05.347Z,0.45
2022-10-18T21:06:35.950Z,0.43
2022-10-18T21:09:07.135Z,0.43
2022-10-18T21:11:40.280Z,0.82
2022-10-18T21:14:12.083Z,0.60
2022-10-18T21:16:39.090Z,0.68
2022-10-18T21:19:13.149Z,0.70
2022-10-18T21:21:43.953Z,0.40
2022-10-18T21:24:12.542Z,0.77
2022-10-18T21:26:40.288Z,1.10
2022-10-18T21:29:08.108Z,0.50
2022-10-18T21:31:39.174Z,1.02
2022-10-18T21:34:14.538Z,0.40
2022-10-18T21:36:43.648Z,0.80
2022-10-18T21:39:20.442Z,0.55
2022-10-18T21:41:47.814Z,1.00
2022-10-18T21:44:15.625Z,1.00
2022-10-18T21:46:46.739Z,0.70
2022-10-18T21:49:15.280Z,0.60
2022-10-18T21:51:42.715Z,0.80
2022-10-18T21:54:15.212Z,1.35
2022-10-18T21:56:42.720Z,0.70
2022-10-18T21:59:12.266Z,0.65
2022-10-18T22:01:40.415Z,1.58
2022-10-18T22:04:18.135Z,1.00
2022-10-18T22:06:45.001Z,0.88
2022-10-18T22:09:11.926Z,1.75
2022-10-18T22:11:47.723Z,0.77
2022-10-18T22:16:41.505Z,2.85
2022-10-18T22:19:09.055Z,0.70
2022-10-18T22:21:35.984Z,0.75
2022-10-18T22:24:07.549Z,0.70
2022-10-18T22:26:38.679Z,0.80
2022-10-18T22:29:14.292Z,0.80
2022-10-18T22:31:48.982Z,0.82
2022-10-18T22:34:20.506Z,0.65
2022-10-18T22:36:47.574Z,0.73
2022-10-18T22:39:15.634Z,0.90
2022-10-18T22:41:43.292Z,0.80
2022-10-18T22:44:13.290Z,0.90
2022-10-18T22:46:41.918Z,1.48
2022-10-18T22:49:09.048Z,1.15
2022-10-18T22:54:03.113Z,0.88
2022-10-18T22:56:30.082Z,0.88
2022-10-18T22:58:56.935Z,0.70
2022-10-18T23:01:24.902Z,1.38
2022-10-18T23:03:56.953Z,0.95
2022-10-18T23:06:27.431Z,1.30
2022-10-18T23:08:56.714Z,1.45
2022-10-18T23:11:25.326Z,1.60
2022-10-18T23:13:52.573Z,1.13
2022-10-18T23:16:19.968Z,0.73
2022-10-18T23:18:55.651Z,1.05
2022-10-18T23:21:25.245Z,0.85
2022-10-18T23:23:53.797Z,1.02
2022-10-18T23:26:24.206Z,1.00
2022-10-18T23:28:53.004Z,1.20
2022-10-18T23:31:27.115Z,1.30
2022-10-18T23:33:56.593Z,1.20
2022-10-18T23:36:24.665Z,1.30
2022-10-18T23:38:51.670Z,1.15
2022-10-18T23:41:19.259Z,1.60
2022-10-18T23:43:47.103Z,1.98
2022-10-18T23:46:16.502Z,1.35
2022-10-18T23:48:43.974Z,1.13
2022-10-18T23:51:11.293Z,1.67
2022-10-18T23:53:38.903Z,1.25
2022-10-18T23:56:09.858Z,1.23
2022-10-18T23:58:38.037Z,0.90
